Gasconade River (Missouri), Rich Fountain (06934000)

StateMissouriLatestHigh (4670 cfs)
RiverGasconade RiverRatingObservedEstimated
Updated2020-04-07 20:30 (57 minutes ago)Flood - The river is flooding. Obstacles can be treacherous or deadly. The river should be avoided at this stage for casual trips and definitely for the inexperienced. Trips should be attempted only with protective gear and equipment.Flood(none)13206
Discharge4670 cfs (median: 3200 cfs)High - The river is high and potentially dangerous, especially for the young and / or inexperienced. Normal stream obstacles are sometimes difficult to navigate. Extended distances can be attempted, but canoe travel may not be advisable.High(none)2904
Height5.45 feetGood - Conditions are ideal for a canoe or kayak. Boats typically will drag on fewer than one-quarter of riffles, if at all, and portages are unnecessary or rare. Normal float lengths can be attempted without a problem.Good(none)1900
TrendFalling (falling over 24 hours)Low - River is low but can still be floated. Some riffles are okay but most come with significant dragging and might need a portage. Float lengths should be reduced to accommodate low flow, dragging, and portages.Low(none)1029
USGSExternal icon USGS Site (External icon Google Maps)Poor - River is too low to float comfortably. Most or all riffles will drag or must be portaged and some obstacles (such as slick shelf rock) cause undue problems. Avoid the river at this stage for casual paddling trips.Poor(none)479

Trending Data

Plot Image

Trips for Gasconade River (Missouri), Rich Fountain (06934000)

DateStartEndDistanceConditionDischargeHeightFishingDetails

A total of 0 rows are displayed.

Condition Descriptions

Fishing Conditions

Fish Species

Notes

Classic Trip List

The classic River Trips application is still available for use. It is updated with the new system using a data retrofit. It is no longer maintained. The original River Trips application is no longer updated (as of 1 Dec 2016) but can be checked for errors or for the condition of the data before it was converted to the new system.

Gauge Data Table

ObservationHeightDischargeMaximum
Discharge
Minimum
Discharge
Mean
Discharge
P05P10P20P25P50
(Median)
P75P80P90P95
2020-04-07 20:30 5.45 4670 32700 (1928) 423 (1956) 4800 1010 1360 1850 1910 3200 5380 6220 11700 13000
2020-04-07 19:30 5.46 4700 32700 (1928) 423 (1956) 4800 1010 1360 1850 1910 3200 5380 6220 11700 13000
2020-04-07 18:30 5.47 4720 32700 (1928) 423 (1956) 4800 1010 1360 1850 1910 3200 5380 6220 11700 13000
2020-04-07 17:30 5.48 4750 32700 (1928) 423 (1956) 4800 1010 1360 1850 1910 3200 5380 6220 11700 13000
2020-04-07 16:30 5.49 4770 32700 (1928) 423 (1956) 4800 1010 1360 1850 1910 3200 5380 6220 11700 13000
2020-04-07 15:30 5.50 4800 32700 (1928) 423 (1956) 4800 1010 1360 1850 1910 3200 5380 6220 11700 13000
2020-04-07 14:30 5.50 4800 32700 (1928) 423 (1956) 4800 1010 1360 1850 1910 3200 5380 6220 11700 13000
2020-04-07 13:30 5.51 4820 32700 (1928) 423 (1956) 4800 1010 1360 1850 1910 3200 5380 6220 11700 13000
2020-04-07 12:30 5.51 4820 32700 (1928) 423 (1956) 4800 1010 1360 1850 1910 3200 5380 6220 11700 13000
2020-04-07 11:30 5.53 4850 32700 (1928) 423 (1956) 4800 1010 1360 1850 1910 3200 5380 6220 11700 13000
2020-04-07 10:30 5.54 4870 32700 (1928) 423 (1956) 4800 1010 1360 1850 1910 3200 5380 6220 11700 13000
2020-04-07 09:30 5.53 4850 32700 (1928) 423 (1956) 4800 1010 1360 1850 1910 3200 5380 6220 11700 13000
2020-04-07 08:30 5.54 4870 32700 (1928) 423 (1956) 4800 1010 1360 1850 1910 3200 5380 6220 11700 13000
2020-04-07 07:30 5.55 4880 32700 (1928) 423 (1956) 4800 1010 1360 1850 1910 3200 5380 6220 11700 13000
2020-04-07 06:30 5.56 4900 32700 (1928) 423 (1956) 4800 1010 1360 1850 1910 3200 5380 6220 11700 13000
2020-04-07 05:30 5.56 4900 32700 (1928) 423 (1956) 4800 1010 1360 1850 1910 3200 5380 6220 11700 13000
2020-04-07 04:30 5.57 4920 32700 (1928) 423 (1956) 4800 1010 1360 1850 1910 3200 5380 6220 11700 13000
2020-04-07 03:30 5.58 4930 32700 (1928) 423 (1956) 4800 1010 1360 1850 1910 3200 5380 6220 11700 13000
2020-04-07 02:30 5.58 4930 32700 (1928) 423 (1956) 4800 1010 1360 1850 1910 3200 5380 6220 11700 13000
2020-04-07 01:30 5.61 4980 32700 (1928) 423 (1956) 4800 1010 1360 1850 1910 3200 5380 6220 11700 13000
2020-04-07 00:30 5.61 4980 32700 (1928) 423 (1956) 4800 1010 1360 1850 1910 3200 5380 6220 11700 13000
2020-04-06 23:30 5.63 5020 26900 (1928) 428 (1956) 4990 1050 1280 1870 1940 3350 5710 6450 12300 18500
2020-04-06 22:30 5.63 5020 26900 (1928) 428 (1956) 4990 1050 1280 1870 1940 3350 5710 6450 12300 18500
2020-04-06 21:30 5.64 5030 26900 (1928) 428 (1956) 4990 1050 1280 1870 1940 3350 5710 6450 12300 18500
2020-04-06 20:30 5.64 5030 26900 (1928) 428 (1956) 4990 1050 1280 1870 1940 3350 5710 6450 12300 18500
2020-04-06 19:30 5.65 5050 26900 (1928) 428 (1956) 4990 1050 1280 1870 1940 3350 5710 6450 12300 18500
2020-04-06 18:30 5.67 5080 26900 (1928) 428 (1956) 4990 1050 1280 1870 1940 3350 5710 6450 12300 18500
2020-04-06 17:30 5.68 5100 26900 (1928) 428 (1956) 4990 1050 1280 1870 1940 3350 5710 6450 12300 18500
2020-04-06 16:30 5.68 5100 26900 (1928) 428 (1956) 4990 1050 1280 1870 1940 3350 5710 6450 12300 18500
2020-04-06 15:30 5.69 5120 26900 (1928) 428 (1956) 4990 1050 1280 1870 1940 3350 5710 6450 12300 18500
2020-04-06 14:30 5.70 5130 26900 (1928) 428 (1956) 4990 1050 1280 1870 1940 3350 5710 6450 12300 18500
2020-04-06 13:30 5.71 5150 26900 (1928) 428 (1956) 4990 1050 1280 1870 1940 3350 5710 6450 12300 18500
2020-04-06 12:30 5.72 5170 26900 (1928) 428 (1956) 4990 1050 1280 1870 1940 3350 5710 6450 12300 18500
2020-04-06 11:30 5.73 5180 26900 (1928) 428 (1956) 4990 1050 1280 1870 1940 3350 5710 6450 12300 18500
2020-04-06 10:30 5.74 5200 26900 (1928) 428 (1956) 4990 1050 1280 1870 1940 3350 5710 6450 12300 18500
2020-04-06 09:30 5.73 5180 26900 (1928) 428 (1956) 4990 1050 1280 1870 1940 3350 5710 6450 12300 18500
2020-04-06 08:30 5.74 5200 26900 (1928) 428 (1956) 4990 1050 1280 1870 1940 3350 5710 6450 12300 18500
2020-04-06 07:30 5.75 5220 26900 (1928) 428 (1956) 4990 1050 1280 1870 1940 3350 5710 6450 12300 18500
2020-04-06 06:30 5.77 5250 26900 (1928) 428 (1956) 4990 1050 1280 1870 1940 3350 5710 6450 12300 18500
2020-04-06 05:30 5.78 5270 26900 (1928) 428 (1956) 4990 1050 1280 1870 1940 3350 5710 6450 12300 18500
2020-04-06 04:30 5.78 5270 26900 (1928) 428 (1956) 4990 1050 1280 1870 1940 3350 5710 6450 12300 18500
2020-04-06 03:30 5.80 5300 26900 (1928) 428 (1956) 4990 1050 1280 1870 1940 3350 5710 6450 12300 18500
2020-04-06 02:30 5.81 5320 26900 (1928) 428 (1956) 4990 1050 1280 1870 1940 3350 5710 6450 12300 18500
2020-04-06 01:30 5.83 5340 26900 (1928) 428 (1956) 4990 1050 1280 1870 1940 3350 5710 6450 12300 18500
2020-04-06 00:30 5.84 5360 26900 (1928) 428 (1956) 4990 1050 1280 1870 1940 3350 5710 6450 12300 18500
2020-04-05 23:30 5.86 5390 31100 (1945) 444 (1956) 5220 982 1330 1920 2020 3160 5970 7080 14000 19200
2020-04-05 22:30 5.86 5390 31100 (1945) 444 (1956) 5220 982 1330 1920 2020 3160 5970 7080 14000 19200
2020-04-05 21:30 5.87 5400 31100 (1945) 444 (1956) 5220 982 1330 1920 2020 3160 5970 7080 14000 19200
2020-04-05 20:30 5.87 5400 31100 (1945) 444 (1956) 5220 982 1330 1920 2020 3160 5970 7080 14000 19200
2020-04-05 19:30 5.89 5430 31100 (1945) 444 (1956) 5220 982 1330 1920 2020 3160 5970 7080 14000 19200
2020-04-05 18:30 5.90 5450 31100 (1945) 444 (1956) 5220 982 1330 1920 2020 3160 5970 7080 14000 19200
2020-04-05 17:30 5.91 5460 31100 (1945) 444 (1956) 5220 982 1330 1920 2020 3160 5970 7080 14000 19200
2020-04-05 16:30 5.91 5460 31100 (1945) 444 (1956) 5220 982 1330 1920 2020 3160 5970 7080 14000 19200
2020-04-05 15:30 5.94 5510 31100 (1945) 444 (1956) 5220 982 1330 1920 2020 3160 5970 7080 14000 19200
2020-04-05 14:30 5.94 5510 31100 (1945) 444 (1956) 5220 982 1330 1920 2020 3160 5970 7080 14000 19200
2020-04-05 13:30 5.95 5520 31100 (1945) 444 (1956) 5220 982 1330 1920 2020 3160 5970 7080 14000 19200
2020-04-05 12:30 5.96 5540 31100 (1945) 444 (1956) 5220 982 1330 1920 2020 3160 5970 7080 14000 19200
2020-04-05 11:30 5.97 5550 31100 (1945) 444 (1956) 5220 982 1330 1920 2020 3160 5970 7080 14000 19200
2020-04-05 10:30 5.98 5570 31100 (1945) 444 (1956) 5220 982 1330 1920 2020 3160 5970 7080 14000 19200
2020-04-05 09:30 6.00 5600 31100 (1945) 444 (1956) 5220 982 1330 1920 2020 3160 5970 7080 14000 19200
2020-04-05 08:30 6.01 5610 31100 (1945) 444 (1956) 5220 982 1330 1920 2020 3160 5970 7080 14000 19200
2020-04-05 07:30 6.02 5630 31100 (1945) 444 (1956) 5220 982 1330 1920 2020 3160 5970 7080 14000 19200
2020-04-05 06:30 6.02 5630 31100 (1945) 444 (1956) 5220 982 1330 1920 2020 3160 5970 7080 14000 19200
2020-04-05 05:30 6.03 5640 31100 (1945) 444 (1956) 5220 982 1330 1920 2020 3160 5970 7080 14000 19200
2020-04-05 04:30 6.06 5690 31100 (1945) 444 (1956) 5220 982 1330 1920 2020 3160 5970 7080 14000 19200
2020-04-05 03:30 6.06 5690 31100 (1945) 444 (1956) 5220 982 1330 1920 2020 3160 5970 7080 14000 19200
2020-04-05 02:30 6.08 5720 31100 (1945) 444 (1956) 5220 982 1330 1920 2020 3160 5970 7080 14000 19200
2020-04-05 01:30 6.09 5740 31100 (1945) 444 (1956) 5220 982 1330 1920 2020 3160 5970 7080 14000 19200
2020-04-05 00:30 6.10 5750 31100 (1945) 444 (1956) 5220 982 1330 1920 2020 3160 5970 7080 14000 19200
2020-04-04 23:30 6.12 5780 36500 (1927) 457 (1956) 5240 1020 1310 1850 2000 3150 5970 6420 10800 21100
2020-04-04 22:30 6.13 5800 36500 (1927) 457 (1956) 5240 1020 1310 1850 2000 3150 5970 6420 10800 21100
2020-04-04 21:30 6.15 5830 36500 (1927) 457 (1956) 5240 1020 1310 1850 2000 3150 5970 6420 10800 21100
2020-04-04 20:30 6.16 5840 36500 (1927) 457 (1956) 5240 1020 1310 1850 2000 3150 5970 6420 10800 21100
2020-04-04 19:30 6.17 5860 36500 (1927) 457 (1956) 5240 1020 1310 1850 2000 3150 5970 6420 10800 21100
2020-04-04 18:30 6.18 5870 36500 (1927) 457 (1956) 5240 1020 1310 1850 2000 3150 5970 6420 10800 21100
2020-04-04 17:30 6.19 5890 36500 (1927) 457 (1956) 5240 1020 1310 1850 2000 3150 5970 6420 10800 21100
2020-04-04 16:30 6.20 5910 36500 (1927) 457 (1956) 5240 1020 1310 1850 2000 3150 5970 6420 10800 21100
2020-04-04 15:30 6.22 5940 36500 (1927) 457 (1956) 5240 1020 1310 1850 2000 3150 5970 6420 10800 21100
2020-04-04 14:30 6.24 5980 36500 (1927) 457 (1956) 5240 1020 1310 1850 2000 3150 5970 6420 10800 21100
2020-04-04 13:30 6.25 6000 36500 (1927) 457 (1956) 5240 1020 1310 1850 2000 3150 5970 6420 10800 21100
2020-04-04 12:30 6.26 6010 36500 (1927) 457 (1956) 5240 1020 1310 1850 2000 3150 5970 6420 10800 21100
2020-04-04 11:30 6.27 6030 36500 (1927) 457 (1956) 5240 1020 1310 1850 2000 3150 5970 6420 10800 21100
2020-04-04 10:30 6.29 6070 36500 (1927) 457 (1956) 5240 1020 1310 1850 2000 3150 5970 6420 10800 21100
2020-04-04 09:30 6.30 6090 36500 (1927) 457 (1956) 5240 1020 1310 1850 2000 3150 5970 6420 10800 21100
2020-04-04 08:30 6.32 6120 36500 (1927) 457 (1956) 5240 1020 1310 1850 2000 3150 5970 6420 10800 21100
2020-04-04 07:30 6.33 6140 36500 (1927) 457 (1956) 5240 1020 1310 1850 2000 3150 5970 6420 10800 21100
2020-04-04 06:30 6.35 6180 36500 (1927) 457 (1956) 5240 1020 1310 1850 2000 3150 5970 6420 10800 21100
2020-04-04 05:30 6.36 6190 36500 (1927) 457 (1956) 5240 1020 1310 1850 2000 3150 5970 6420 10800 21100
2020-04-04 04:30 6.36 6190 36500 (1927) 457 (1956) 5240 1020 1310 1850 2000 3150 5970 6420 10800 21100
2020-04-04 03:30 6.39 6230 36500 (1927) 457 (1956) 5240 1020 1310 1850 2000 3150 5970 6420 10800 21100
2020-04-04 02:30 6.40 6250 36500 (1927) 457 (1956) 5240 1020 1310 1850 2000 3150 5970 6420 10800 21100
2020-04-04 01:30 6.41 6270 36500 (1927) 457 (1956) 5240 1020 1310 1850 2000 3150 5970 6420 10800 21100
2020-04-04 00:30 6.42 6280 36500 (1927) 457 (1956) 5240 1020 1310 1850 2000 3150 5970 6420 10800 21100
2020-04-03 23:30 6.44 6320 40700 (1927) 475 (1956) 5510 1040 1300 1880 2080 3320 5840 7150 10200 22700
2020-04-03 22:30 6.46 6360 40700 (1927) 475 (1956) 5510 1040 1300 1880 2080 3320 5840 7150 10200 22700
2020-04-03 21:30 6.46 6360 40700 (1927) 475 (1956) 5510 1040 1300 1880 2080 3320 5840 7150 10200 22700
2020-04-03 20:30 6.49 6410 40700 (1927) 475 (1956) 5510 1040 1300 1880 2080 3320 5840 7150 10200 22700
2020-04-03 19:30 6.50 6430 40700 (1927) 475 (1956) 5510 1040 1300 1880 2080 3320 5840 7150 10200 22700
2020-04-03 18:30 6.51 6440 40700 (1927) 475 (1956) 5510 1040 1300 1880 2080 3320 5840 7150 10200 22700
2020-04-03 17:30 6.53 6470 40700 (1927) 475 (1956) 5510 1040 1300 1880 2080 3320 5840 7150 10200 22700
2020-04-03 16:30 6.53 6470 40700 (1927) 475 (1956) 5510 1040 1300 1880 2080 3320 5840 7150 10200 22700
2020-04-03 15:30 6.54 6490 40700 (1927) 475 (1956) 5510 1040 1300 1880 2080 3320 5840 7150 10200 22700
2020-04-03 14:30 6.55 6500 40700 (1927) 475 (1956) 5510 1040 1300 1880 2080 3320 5840 7150 10200 22700
2020-04-03 13:30 6.57 6530 40700 (1927) 475 (1956) 5510 1040 1300 1880 2080 3320 5840 7150 10200 22700
2020-04-03 12:30 6.58 6550 40700 (1927) 475 (1956) 5510 1040 1300 1880 2080 3320 5840 7150 10200 22700
2020-04-03 11:30 6.59 6560 40700 (1927) 475 (1956) 5510 1040 1300 1880 2080 3320 5840 7150 10200 22700
2020-04-03 10:30 6.60 6580 40700 (1927) 475 (1956) 5510 1040 1300 1880 2080 3320 5840 7150 10200 22700
2020-04-03 09:30 6.60 6580 40700 (1927) 475 (1956) 5510 1040 1300 1880 2080 3320 5840 7150 10200 22700
2020-04-03 08:30 6.59 6560 40700 (1927) 475 (1956) 5510 1040 1300 1880 2080 3320 5840 7150 10200 22700
2020-04-03 07:30 6.59 6560 40700 (1927) 475 (1956) 5510 1040 1300 1880 2080 3320 5840 7150 10200 22700
2020-04-03 06:30 6.59 6560 40700 (1927) 475 (1956) 5510 1040 1300 1880 2080 3320 5840 7150 10200 22700
2020-04-03 05:30 6.59 6560 40700 (1927) 475 (1956) 5510 1040 1300 1880 2080 3320 5840 7150 10200 22700
2020-04-03 04:30 6.59 6560 40700 (1927) 475 (1956) 5510 1040 1300 1880 2080 3320 5840 7150 10200 22700
2020-04-03 03:30 6.58 6550 40700 (1927) 475 (1956) 5510 1040 1300 1880 2080 3320 5840 7150 10200 22700
2020-04-03 02:30 6.60 6580 40700 (1927) 475 (1956) 5510 1040 1300 1880 2080 3320 5840 7150 10200 22700
2020-04-03 01:30 6.60 6580 40700 (1927) 475 (1956) 5510 1040 1300 1880 2080 3320 5840 7150 10200 22700
2020-04-03 00:30 6.59 6560 40700 (1927) 475 (1956) 5510 1040 1300 1880 2080 3320 5840 7150 10200 22700
2020-04-02 23:30 6.60 6580 32400 (1945) 453 (1956) 5460 977 1260 1770 2160 3220 5840 6960 11400 25600
2020-04-02 22:30 6.60 6580 32400 (1945) 453 (1956) 5460 977 1260 1770 2160 3220 5840 6960 11400 25600
2020-04-02 21:30 6.61 6590 32400 (1945) 453 (1956) 5460 977 1260 1770 2160 3220 5840 6960 11400 25600
2020-04-02 20:30 6.61 6590 32400 (1945) 453 (1956) 5460 977 1260 1770 2160 3220 5840 6960 11400 25600
2020-04-02 19:30 6.63 6620 32400 (1945) 453 (1956) 5460 977 1260 1770 2160 3220 5840 6960 11400 25600
2020-04-02 18:30 6.62 6610 32400 (1945) 453 (1956) 5460 977 1260 1770 2160 3220 5840 6960 11400 25600
2020-04-02 17:30 6.64 6640 32400 (1945) 453 (1956) 5460 977 1260 1770 2160 3220 5840 6960 11400 25600
2020-04-02 16:30 6.66 6670 32400 (1945) 453 (1956) 5460 977 1260 1770 2160 3220 5840 6960 11400 25600
2020-04-02 15:30 6.66 6670 32400 (1945) 453 (1956) 5460 977 1260 1770 2160 3220 5840 6960 11400 25600
2020-04-02 14:30 6.67 6680 32400 (1945) 453 (1956) 5460 977 1260 1770 2160 3220 5840 6960 11400 25600
2020-04-02 13:30 6.67 6680 32400 (1945) 453 (1956) 5460 977 1260 1770 2160 3220 5840 6960 11400 25600
2020-04-02 12:30 6.69 6720 32400 (1945) 453 (1956) 5460 977 1260 1770 2160 3220 5840 6960 11400 25600
2020-04-02 11:30 6.70 6730 32400 (1945) 453 (1956) 5460 977 1260 1770 2160 3220 5840 6960 11400 25600
2020-04-02 10:30 6.69 6720 32400 (1945) 453 (1956) 5460 977 1260 1770 2160 3220 5840 6960 11400 25600
2020-04-02 09:30 6.71 6750 32400 (1945) 453 (1956) 5460 977 1260 1770 2160 3220 5840 6960 11400 25600
2020-04-02 08:30 6.71 6750 32400 (1945) 453 (1956) 5460 977 1260 1770 2160 3220 5840 6960 11400 25600
2020-04-02 07:30 6.73 6780 32400 (1945) 453 (1956) 5460 977 1260 1770 2160 3220 5840 6960 11400 25600
2020-04-02 06:30 6.74 6790 32400 (1945) 453 (1956) 5460 977 1260 1770 2160 3220 5840 6960 11400 25600
2020-04-02 05:30 6.76 6820 32400 (1945) 453 (1956) 5460 977 1260 1770 2160 3220 5840 6960 11400 25600
2020-04-02 04:30 6.76 6820 32400 (1945) 453 (1956) 5460 977 1260 1770 2160 3220 5840 6960 11400 25600
2020-04-02 03:30 6.78 6850 32400 (1945) 453 (1956) 5460 977 1260 1770 2160 3220 5840 6960 11400 25600
2020-04-02 02:30 6.79 6870 32400 (1945) 453 (1956) 5460 977 1260 1770 2160 3220 5840 6960 11400 25600
2020-04-02 01:30 6.80 6890 32400 (1945) 453 (1956) 5460 977 1260 1770 2160 3220 5840 6960 11400 25600
2020-04-02 00:30 6.85 6960 32400 (1945) 453 (1956) 5460 977 1260 1770 2160 3220 5840 6960 11400 25600
2020-04-01 23:30 6.85 6960 26300 (2008) 428 (1956) 5600 1030 1350 1710 2200 3370 6400 7070 14000 24200
2020-04-01 22:30 6.87 6990 26300 (2008) 428 (1956) 5600 1030 1350 1710 2200 3370 6400 7070 14000 24200
2020-04-01 21:30 6.87 6990 26300 (2008) 428 (1956) 5600 1030 1350 1710 2200 3370 6400 7070 14000 24200
2020-04-01 20:30 6.90 7040 26300 (2008) 428 (1956) 5600 1030 1350 1710 2200 3370 6400 7070 14000 24200
2020-04-01 19:30 6.94 7090 26300 (2008) 428 (1956) 5600 1030 1350 1710 2200 3370 6400 7070 14000 24200
2020-04-01 18:30 6.96 7130 26300 (2008) 428 (1956) 5600 1030 1350 1710 2200 3370 6400 7070 14000 24200
2020-04-01 17:30 6.97 7140 26300 (2008) 428 (1956) 5600 1030 1350 1710 2200 3370 6400 7070 14000 24200
2020-04-01 16:30 7.01 7210 26300 (2008) 428 (1956) 5600 1030 1350 1710 2200 3370 6400 7070 14000 24200
2020-04-01 15:30 7.02 7230 26300 (2008) 428 (1956) 5600 1030 1350 1710 2200 3370 6400 7070 14000 24200
2020-04-01 14:30 7.05 7280 26300 (2008) 428 (1956) 5600 1030 1350 1710 2200 3370 6400 7070 14000 24200
2020-04-01 13:30 7.07 7310 26300 (2008) 428 (1956) 5600 1030 1350 1710 2200 3370 6400 7070 14000 24200
2020-04-01 12:30 7.10 7360 26300 (2008) 428 (1956) 5600 1030 1350 1710 2200 3370 6400 7070 14000 24200
2020-04-01 11:30 7.13 7420 26300 (2008) 428 (1956) 5600 1030 1350 1710 2200 3370 6400 7070 14000 24200
2020-04-01 10:30 7.15 7450 26300 (2008) 428 (1956) 5600 1030 1350 1710 2200 3370 6400 7070 14000 24200
2020-04-01 09:30 7.18 7500 26300 (2008) 428 (1956) 5600 1030 1350 1710 2200 3370 6400 7070 14000 24200
2020-04-01 08:30 7.21 7550 26300 (2008) 428 (1956) 5600 1030 1350 1710 2200 3370 6400 7070 14000 24200
2020-04-01 07:30 7.24 7600 26300 (2008) 428 (1956) 5600 1030 1350 1710 2200 3370 6400 7070 14000 24200
2020-04-01 06:30 7.27 7660 26300 (2008) 428 (1956) 5600 1030 1350 1710 2200 3370 6400 7070 14000 24200
2020-04-01 05:30 7.30 7710 26300 (2008) 428 (1956) 5600 1030 1350 1710 2200 3370 6400 7070 14000 24200
2020-04-01 04:30 7.33 7760 26300 (2008) 428 (1956) 5600 1030 1350 1710 2200 3370 6400 7070 14000 24200
2020-04-01 03:30 7.36 7810 26300 (2008) 428 (1956) 5600 1030 1350 1710 2200 3370 6400 7070 14000 24200
2020-04-01 02:30 7.40 7880 26300 (2008) 428 (1956) 5600 1030 1350 1710 2200 3370 6400 7070 14000 24200
2020-04-01 01:30 7.43 7930 26300 (2008) 428 (1956) 5600 1030 1350 1710 2200 3370 6400 7070 14000 24200
2020-04-01 00:30 7.49 8020 26300 (2008) 428 (1956) 5600 1030 1350 1710 2200 3370 6400 7070 14000 24200
2020-03-31 23:30 7.50 8040 35200 (2018) 428 (1956) 5470 1080 1370 1820 2140 3450 6480 6990 14100 21100
2020-03-31 22:30 7.55 8130 35200 (2018) 428 (1956) 5470 1080 1370 1820 2140 3450 6480 6990 14100 21100
2020-03-31 21:30 7.59 8200 35200 (2018) 428 (1956) 5470 1080 1370 1820 2140 3450 6480 6990 14100 21100
2020-03-31 20:30 7.62 8250 35200 (2018) 428 (1956) 5470 1080 1370 1820 2140 3450 6480 6990 14100 21100
2020-03-31 19:30 7.65 8310 35200 (2018) 428 (1956) 5470 1080 1370 1820 2140 3450 6480 6990 14100 21100
2020-03-31 18:30 7.69 8380 35200 (2018) 428 (1956) 5470 1080 1370 1820 2140 3450 6480 6990 14100 21100
2020-03-31 17:30 7.71 8410 35200 (2018) 428 (1956) 5470 1080 1370 1820 2140 3450 6480 6990 14100 21100
2020-03-31 16:30 7.73 8450 35200 (2018) 428 (1956) 5470 1080 1370 1820 2140 3450 6480 6990 14100 21100
2020-03-31 15:30 7.79 8560 35200 (2018) 428 (1956) 5470 1080 1370 1820 2140 3450 6480 6990 14100 21100
2020-03-31 14:30 7.80 8580 35200 (2018) 428 (1956) 5470 1080 1370 1820 2140 3450 6480 6990 14100 21100
2020-03-31 13:30 7.83 8630 35200 (2018) 428 (1956) 5470 1080 1370 1820 2140 3450 6480 6990 14100 21100
2020-03-31 12:30 7.89 8740 35200 (2018) 428 (1956) 5470 1080 1370 1820 2140 3450 6480 6990 14100 21100
2020-03-31 11:30 7.89 8740 35200 (2018) 428 (1956) 5470 1080 1370 1820 2140 3450 6480 6990 14100 21100
2020-03-31 10:30 7.95 8850 35200 (2018) 428 (1956) 5470 1080 1370 1820 2140 3450 6480 6990 14100 21100
2020-03-31 09:30 7.98 8910 35200 (2018) 428 (1956) 5470 1080 1370 1820 2140 3450 6480 6990 14100 21100
2020-03-31 08:30 8.02 8960 35200 (2018) 428 (1956) 5470 1080 1370 1820 2140 3450 6480 6990 14100 21100
2020-03-31 07:30 8.05 9020 35200 (2018) 428 (1956) 5470 1080 1370 1820 2140 3450 6480 6990 14100 21100
2020-03-31 06:30 8.06 9030 35200 (2018) 428 (1956) 5470 1080 1370 1820 2140 3450 6480 6990 14100 21100
2020-03-31 05:30 8.08 9070 35200 (2018) 428 (1956) 5470 1080 1370 1820 2140 3450 6480 6990 14100 21100
2020-03-31 04:30 8.13 9160 35200 (2018) 428 (1956) 5470 1080 1370 1820 2140 3450 6480 6990 14100 21100
2020-03-31 03:30 8.12 9150 35200 (2018) 428 (1956) 5470 1080 1370 1820 2140 3450 6480 6990 14100 21100
2020-03-31 02:30 8.16 9220 35200 (2018) 428 (1956) 5470 1080 1370 1820 2140 3450 6480 6990 14100 21100
2020-03-31 01:30 8.18 9260 35200 (2018) 428 (1956) 5470 1080 1370 1820 2140 3450 6480 6990 14100 21100
2020-03-31 00:30 8.20 9300 35200 (2018) 428 (1956) 5470 1080 1370 1820 2140 3450 6480 6990 14100 21100

A total of 189 rows are displayed for years 1922 through 2019.